sensor_id;sensor_type;location;lat;lon;timestamp;P1;durP1;ratioP1;P2;durP2;ratioP2
52208;SDS011;38507;53.132;6.394;2023-11-21T00:00:48;23.73;;;6.13;;
52208;SDS011;38507;53.132;6.394;2023-11-21T00:03:14;28.92;;;6.38;;
52208;SDS011;38507;53.132;6.394;2023-11-21T00:05:43;26.75;;;6.13;;
52208;SDS011;38507;53.132;6.394;2023-11-21T00:08:08;27.17;;;6.13;;
52208;SDS011;38507;53.132;6.394;2023-11-21T00:10:35;29.48;;;5.72;;
52208;SDS011;38507;53.132;6.394;2023-11-21T00:13:03;28.73;;;5.93;;
52208;SDS011;38507;53.132;6.394;2023-11-21T00:15:29;26.35;;;5.60;;
52208;SDS011;38507;53.132;6.394;2023-11-21T00:17:54;16.80;;;5.60;;
52208;SDS011;38507;53.132;6.394;2023-11-21T00:20:20;33.15;;;6.28;;
52208;SDS011;38507;53.132;6.394;2023-11-21T00:22:46;23.88;;;5.80;;
52208;SDS011;38507;53.132;6.394;2023-11-21T00:25:12;26.45;;;6.75;;
52208;SDS011;38507;53.132;6.394;2023-11-21T00:27:40;28.75;;;6.38;;
52208;SDS011;38507;53.132;6.394;2023-11-21T00:30:06;36.70;;;7.18;;
52208;SDS011;38507;53.132;6.394;2023-11-21T00:32:34;32.40;;;7.25;;
52208;SDS011;38507;53.132;6.394;2023-11-21T00:35:01;26.05;;;7.95;;
52208;SDS011;38507;53.132;6.394;2023-11-21T00:37:26;27.55;;;8.18;;
52208;SDS011;38507;53.132;6.394;2023-11-21T00:39:52;31.70;;;7.93;;
52208;SDS011;38507;53.132;6.394;2023-11-21T00:42:18;33.42;;;8.80;;
52208;SDS011;38507;53.132;6.394;2023-11-21T00:44:43;32.17;;;8.23;;
52208;SDS011;38507;53.132;6.394;2023-11-21T00:47:09;28.10;;;8.50;;
52208;SDS011;38507;53.132;6.394;2023-11-21T00:49:35;34.97;;;8.70;;
52208;SDS011;38507;53.132;6.394;2023-11-21T00:52:00;27.35;;;8.20;;
52208;SDS011;38507;53.132;6.394;2023-11-21T00:54:27;33.75;;;9.43;;
52208;SDS011;38507;53.132;6.394;2023-11-21T00:56:53;24.92;;;9.05;;
52208;SDS011;38507;53.132;6.394;2023-11-21T00:59:18;30.67;;;8.13;;
52208;SDS011;38507;53.132;6.394;2023-11-21T01:01:44;33.08;;;9.05;;
52208;SDS011;38507;53.132;6.394;2023-11-21T01:04:09;34.92;;;9.75;;
52208;SDS011;38507;53.132;6.394;2023-11-21T01:06:35;32.58;;;9.00;;
52208;SDS011;38507;53.132;6.394;2023-11-21T01:09:01;33.15;;;9.68;;
52208;SDS011;38507;53.132;6.394;2023-11-21T01:11:33;43.05;;;10.27;;
52208;SDS011;38507;53.132;6.394;2023-11-21T01:14:03;33.67;;;9.93;;
52208;SDS011;38507;53.132;6.394;2023-11-21T01:16:29;31.25;;;9.40;;
52208;SDS011;38507;53.132;6.394;2023-11-21T01:18:57;36.13;;;10.05;;
52208;SDS011;38507;53.132;6.394;2023-11-21T01:21:24;32.05;;;10.90;;
52208;SDS011;38507;53.132;6.394;2023-11-21T01:23:50;35.92;;;11.10;;
52208;SDS011;38507;53.132;6.394;2023-11-21T01:26:15;30.15;;;10.25;;
52208;SDS011;38507;53.132;6.394;2023-11-21T01:28:41;28.45;;;9.80;;
52208;SDS011;38507;53.132;6.394;2023-11-21T01:31:07;31.05;;;11.02;;
52208;SDS011;38507;53.132;6.394;2023-11-21T01:33:32;37.60;;;10.68;;
52208;SDS011;38507;53.132;6.394;2023-11-21T01:35:58;40.65;;;10.80;;
52208;SDS011;38507;53.132;6.394;2023-11-21T01:38:25;37.50;;;11.23;;
52208;SDS011;38507;53.132;6.394;2023-11-21T01:40:51;33.97;;;10.27;;
52208;SDS011;38507;53.132;6.394;2023-11-21T01:43:17;37.65;;;10.80;;
52208;SDS011;38507;53.132;6.394;2023-11-21T01:45:43;31.02;;;9.63;;
52208;SDS011;38507;53.132;6.394;2023-11-21T01:48:10;39.20;;;10.93;;
52208;SDS011;38507;53.132;6.394;2023-11-21T01:50:37;26.70;;;9.82;;
52208;SDS011;38507;53.132;6.394;2023-11-21T01:53:03;28.60;;;9.63;;
52208;SDS011;38507;53.132;6.394;2023-11-21T01:55:29;34.53;;;10.93;;
52208;SDS011;38507;53.132;6.394;2023-11-21T01:57:55;32.17;;;11.00;;
52208;SDS011;38507;53.132;6.394;2023-11-21T02:00:25;34.72;;;12.23;;
52208;SDS011;38507;53.132;6.394;2023-11-21T02:02:53;35.80;;;11.73;;
52208;SDS011;38507;53.132;6.394;2023-11-21T02:05:19;39.72;;;11.20;;
52208;SDS011;38507;53.132;6.394;2023-11-21T02:07:46;36.20;;;11.27;;
52208;SDS011;38507;53.132;6.394;2023-11-21T02:10:17;33.75;;;11.68;;
52208;SDS011;38507;53.132;6.394;2023-11-21T02:12:47;45.85;;;11.82;;
52208;SDS011;38507;53.132;6.394;2023-11-21T02:15:15;28.40;;;10.18;;
52208;SDS011;38507;53.132;6.394;2023-11-21T02:17:51;31.02;;;11.10;;
52208;SDS011;38507;53.132;6.394;2023-11-21T02:20:18;28.55;;;10.45;;
52208;SDS011;38507;53.132;6.394;2023-11-21T02:22:49;34.63;;;11.38;;
52208;SDS011;38507;53.132;6.394;2023-11-21T02:25:22;35.08;;;11.75;;
52208;SDS011;38507;53.132;6.394;2023-11-21T02:27:56;33.47;;;11.30;;
52208;SDS011;38507;53.132;6.394;2023-11-21T02:30:22;31.42;;;11.60;;
52208;SDS011;38507;53.132;6.394;2023-11-21T02:32:50;29.55;;;10.68;;
52208;SDS011;38507;53.132;6.394;2023-11-21T02:35:18;35.15;;;10.45;;
52208;SDS011;38507;53.132;6.394;2023-11-21T02:37:46;28.00;;;11.27;;
52208;SDS011;38507;53.132;6.394;2023-11-21T02:40:12;30.90;;;10.88;;
52208;SDS011;38507;53.132;6.394;2023-11-21T02:42:39;39.40;;;11.52;;
52208;SDS011;38507;53.132;6.394;2023-11-21T02:45:06;28.10;;;10.20;;
52208;SDS011;38507;53.132;6.394;2023-11-21T02:47:33;27.95;;;10.60;;
52208;SDS011;38507;53.132;6.394;2023-11-21T02:49:58;23.63;;;10.88;;
52208;SDS011;38507;53.132;6.394;2023-11-21T02:52:24;33.15;;;11.23;;
52208;SDS011;38507;53.132;6.394;2023-11-21T02:54:50;30.67;;;11.80;;
52208;SDS011;38507;53.132;6.394;2023-11-21T02:57:16;29.77;;;10.82;;
52208;SDS011;38507;53.132;6.394;2023-11-21T02:59:42;36.67;;;11.60;;
52208;SDS011;38507;53.132;6.394;2023-11-21T03:02:08;27.88;;;10.77;;
52208;SDS011;38507;53.132;6.394;2023-11-21T03:04:33;42.42;;;12.15;;
52208;SDS011;38507;53.132;6.394;2023-11-21T03:06:59;41.58;;;12.75;;
52208;SDS011;38507;53.132;6.394;2023-11-21T03:09:25;32.33;;;11.57;;
52208;SDS011;38507;53.132;6.394;2023-11-21T03:11:55;26.98;;;11.48;;
52208;SDS011;38507;53.132;6.394;2023-11-21T03:14:21;39.08;;;12.20;;
52208;SDS011;38507;53.132;6.394;2023-11-21T03:16:47;37.00;;;12.23;;
52208;SDS011;38507;53.132;6.394;2023-11-21T03:19:14;31.88;;;12.07;;
52208;SDS011;38507;53.132;6.394;2023-11-21T03:21:40;36.63;;;12.57;;
52208;SDS011;38507;53.132;6.394;2023-11-21T03:24:05;42.30;;;13.52;;
52208;SDS011;38507;53.132;6.394;2023-11-21T03:26:32;27.02;;;11.25;;
52208;SDS011;38507;53.132;6.394;2023-11-21T03:28:58;38.28;;;13.18;;
52208;SDS011;38507;53.132;6.394;2023-11-21T03:31:24;47.33;;;13.68;;
52208;SDS011;38507;53.132;6.394;2023-11-21T03:33:49;44.78;;;13.15;;
52208;SDS011;38507;53.132;6.394;2023-11-21T03:36:15;37.95;;;12.73;;
52208;SDS011;38507;53.132;6.394;2023-11-21T03:38:41;40.65;;;13.30;;
52208;SDS011;38507;53.132;6.394;2023-11-21T03:41:07;34.92;;;12.75;;
52208;SDS011;38507;53.132;6.394;2023-11-21T03:43:35;32.55;;;12.50;;
52208;SDS011;38507;53.132;6.394;2023-11-21T03:46:04;35.47;;;12.35;;
52208;SDS011;38507;53.132;6.394;2023-11-21T03:48:29;34.95;;;12.60;;
52208;SDS011;38507;53.132;6.394;2023-11-21T03:50:55;32.95;;;12.20;;
52208;SDS011;38507;53.132;6.394;2023-11-21T03:53:21;36.72;;;12.98;;
52208;SDS011;38507;53.132;6.394;2023-11-21T03:55:46;32.17;;;12.38;;
52208;SDS011;38507;53.132;6.394;2023-11-21T03:58:12;30.60;;;12.93;;
52208;SDS011;38507;53.132;6.394;2023-11-21T04:00:38;34.22;;;12.70;;
52208;SDS011;38507;53.132;6.394;2023-11-21T04:03:04;37.58;;;12.73;;
52208;SDS011;38507;53.132;6.394;2023-11-21T04:05:30;32.58;;;13.00;;
52208;SDS011;38507;53.132;6.394;2023-11-21T04:07:56;30.42;;;11.25;;
52208;SDS011;38507;53.132;6.394;2023-11-21T04:10:21;32.50;;;12.70;;
52208;SDS011;38507;53.132;6.394;2023-11-21T04:12:47;34.08;;;13.00;;
52208;SDS011;38507;53.132;6.394;2023-11-21T04:15:13;29.50;;;12.48;;
52208;SDS011;38507;53.132;6.394;2023-11-21T04:17:39;33.67;;;13.20;;
52208;SDS011;38507;53.132;6.394;2023-11-21T04:20:05;30.75;;;13.18;;
52208;SDS011;38507;53.132;6.394;2023-11-21T04:22:36;32.20;;;13.10;;
52208;SDS011;38507;53.132;6.394;2023-11-21T04:25:06;38.30;;;13.70;;
52208;SDS011;38507;53.132;6.394;2023-11-21T04:27:36;28.85;;;12.48;;
52208;SDS011;38507;53.132;6.394;2023-11-21T04:30:03;35.75;;;12.68;;
52208;SDS011;38507;53.132;6.394;2023-11-21T04:32:30;30.35;;;12.60;;
52208;SDS011;38507;53.132;6.394;2023-11-21T04:34:55;37.42;;;14.85;;
52208;SDS011;38507;53.132;6.394;2023-11-21T04:37:21;27.90;;;12.40;;
52208;SDS011;38507;53.132;6.394;2023-11-21T04:39:47;30.40;;;12.68;;
52208;SDS011;38507;53.132;6.394;2023-11-21T04:42:13;36.72;;;12.52;;
52208;SDS011;38507;53.132;6.394;2023-11-21T04:44:39;36.13;;;13.98;;
52208;SDS011;38507;53.132;6.394;2023-11-21T04:47:06;35.15;;;12.60;;
52208;SDS011;38507;53.132;6.394;2023-11-21T04:49:32;31.58;;;12.85;;
52208;SDS011;38507;53.132;6.394;2023-11-21T04:51:58;32.10;;;13.38;;
52208;SDS011;38507;53.132;6.394;2023-11-21T04:54:24;37.80;;;13.10;;
52208;SDS011;38507;53.132;6.394;2023-11-21T04:56:49;29.58;;;13.02;;
52208;SDS011;38507;53.132;6.394;2023-11-21T04:59:15;41.22;;;14.27;;
52208;SDS011;38507;53.132;6.394;2023-11-21T05:01:41;34.45;;;13.18;;
52208;SDS011;38507;53.132;6.394;2023-11-21T05:04:06;54.75;;;15.55;;
52208;SDS011;38507;53.132;6.394;2023-11-21T05:06:33;51.10;;;15.20;;
52208;SDS011;38507;53.132;6.394;2023-11-21T05:08:59;37.90;;;13.80;;
52208;SDS011;38507;53.132;6.394;2023-11-21T05:11:25;52.42;;;14.43;;
52208;SDS011;38507;53.132;6.394;2023-11-21T05:13:52;39.63;;;14.10;;
52208;SDS011;38507;53.132;6.394;2023-11-21T05:16:18;37.42;;;13.32;;
52208;SDS011;38507;53.132;6.394;2023-11-21T05:18:45;52.83;;;15.45;;
52208;SDS011;38507;53.132;6.394;2023-11-21T05:21:10;44.70;;;14.38;;
52208;SDS011;38507;53.132;6.394;2023-11-21T05:23:36;31.88;;;12.50;;
52208;SDS011;38507;53.132;6.394;2023-11-21T05:26:02;42.60;;;13.48;;
52208;SDS011;38507;53.132;6.394;2023-11-21T05:28:28;35.00;;;12.73;;
52208;SDS011;38507;53.132;6.394;2023-11-21T05:30:54;29.88;;;12.65;;
52208;SDS011;38507;53.132;6.394;2023-11-21T05:33:20;33.80;;;12.43;;
52208;SDS011;38507;53.132;6.394;2023-11-21T05:35:45;30.98;;;11.65;;
52208;SDS011;38507;53.132;6.394;2023-11-21T05:38:13;34.45;;;12.50;;
52208;SDS011;38507;53.132;6.394;2023-11-21T05:40:39;34.67;;;12.30;;
52208;SDS011;38507;53.132;6.394;2023-11-21T05:43:05;34.50;;;11.73;;
52208;SDS011;38507;53.132;6.394;2023-11-21T05:45:31;31.75;;;11.88;;
52208;SDS011;38507;53.132;6.394;2023-11-21T05:47:58;30.23;;;11.45;;
52208;SDS011;38507;53.132;6.394;2023-11-21T05:50:23;29.40;;;11.52;;
52208;SDS011;38507;53.132;6.394;2023-11-21T05:52:49;28.98;;;11.82;;
52208;SDS011;38507;53.132;6.394;2023-11-21T05:55:15;33.30;;;12.40;;
52208;SDS011;38507;53.132;6.394;2023-11-21T05:57:41;31.45;;;11.95;;
52208;SDS011;38507;53.132;6.394;2023-11-21T06:00:08;36.35;;;12.93;;
52208;SDS011;38507;53.132;6.394;2023-11-21T06:02:38;36.72;;;12.43;;
52208;SDS011;38507;53.132;6.394;2023-11-21T06:05:06;37.92;;;13.52;;
52208;SDS011;38507;53.132;6.394;2023-11-21T06:07:32;36.17;;;14.20;;
52208;SDS011;38507;53.132;6.394;2023-11-21T06:09:58;31.02;;;13.80;;
52208;SDS011;38507;53.132;6.394;2023-11-21T06:12:24;36.63;;;13.85;;
52208;SDS011;38507;53.132;6.394;2023-11-21T06:14:50;34.95;;;13.15;;
52208;SDS011;38507;53.132;6.394;2023-11-21T06:17:16;32.95;;;13.50;;
52208;SDS011;38507;53.132;6.394;2023-11-21T06:19:42;25.85;;;12.52;;
52208;SDS011;38507;53.132;6.394;2023-11-21T06:22:10;30.08;;;12.57;;
52208;SDS011;38507;53.132;6.394;2023-11-21T06:24:36;27.52;;;12.00;;
52208;SDS011;38507;53.132;6.394;2023-11-21T06:27:05;24.45;;;11.45;;
52208;SDS011;38507;53.132;6.394;2023-11-21T06:29:31;30.38;;;11.45;;
52208;SDS011;38507;53.132;6.394;2023-11-21T06:31:57;23.33;;;11.15;;
52208;SDS011;38507;53.132;6.394;2023-11-21T06:34:23;28.17;;;12.45;;
52208;SDS011;38507;53.132;6.394;2023-11-21T06:36:49;28.00;;;11.90;;
52208;SDS011;38507;53.132;6.394;2023-11-21T06:39:14;28.23;;;11.20;;
52208;SDS011;38507;53.132;6.394;2023-11-21T06:41:42;24.00;;;11.70;;
52208;SDS011;38507;53.132;6.394;2023-11-21T06:44:08;26.77;;;11.25;;
52208;SDS011;38507;53.132;6.394;2023-11-21T06:46:33;26.25;;;11.55;;
52208;SDS011;38507;53.132;6.394;2023-11-21T06:48:59;27.60;;;11.75;;
52208;SDS011;38507;53.132;6.394;2023-11-21T06:51:25;27.67;;;12.02;;
52208;SDS011;38507;53.132;6.394;2023-11-21T06:53:50;27.48;;;11.77;;
52208;SDS011;38507;53.132;6.394;2023-11-21T06:56:16;30.33;;;12.93;;
52208;SDS011;38507;53.132;6.394;2023-11-21T06:58:44;24.00;;;11.80;;
52208;SDS011;38507;53.132;6.394;2023-11-21T07:01:11;33.70;;;12.82;;
52208;SDS011;38507;53.132;6.394;2023-11-21T07:03:37;30.70;;;12.13;;
52208;SDS011;38507;53.132;6.394;2023-11-21T07:06:03;28.10;;;12.73;;
52208;SDS011;38507;53.132;6.394;2023-11-21T07:08:29;30.83;;;13.00;;
52208;SDS011;38507;53.132;6.394;2023-11-21T07:10:55;39.00;;;14.80;;
52208;SDS011;38507;53.132;6.394;2023-11-21T07:13:20;33.42;;;14.50;;
52208;SDS011;38507;53.132;6.394;2023-11-21T07:15:46;35.15;;;14.43;;
52208;SDS011;38507;53.132;6.394;2023-11-21T07:18:13;39.40;;;15.77;;
52208;SDS011;38507;53.132;6.394;2023-11-21T07:20:39;40.03;;;16.45;;
52208;SDS011;38507;53.132;6.394;2023-11-21T07:23:04;36.83;;;16.52;;
52208;SDS011;38507;53.132;6.394;2023-11-21T07:25:31;41.15;;;16.35;;
52208;SDS011;38507;53.132;6.394;2023-11-21T07:27:57;37.83;;;15.60;;
52208;SDS011;38507;53.132;6.394;2023-11-21T07:30:22;40.30;;;15.10;;
52208;SDS011;38507;53.132;6.394;2023-11-21T07:32:48;31.23;;;13.80;;
52208;SDS011;38507;53.132;6.394;2023-11-21T07:35:14;31.35;;;13.15;;
52208;SDS011;38507;53.132;6.394;2023-11-21T07:37:40;28.00;;;12.30;;
52208;SDS011;38507;53.132;6.394;2023-11-21T07:40:05;27.55;;;11.65;;
52208;SDS011;38507;53.132;6.394;2023-11-21T07:42:33;22.30;;;11.68;;
52208;SDS011;38507;53.132;6.394;2023-11-21T07:44:59;28.95;;;12.05;;
52208;SDS011;38507;53.132;6.394;2023-11-21T07:47:25;26.00;;;12.60;;
52208;SDS011;38507;53.132;6.394;2023-11-21T07:49:52;25.83;;;12.63;;
52208;SDS011;38507;53.132;6.394;2023-11-21T07:52:20;22.92;;;12.05;;
52208;SDS011;38507;53.132;6.394;2023-11-21T07:54:47;27.30;;;13.00;;
52208;SDS011;38507;53.132;6.394;2023-11-21T07:57:12;25.58;;;13.30;;
52208;SDS011;38507;53.132;6.394;2023-11-21T07:59:39;28.45;;;13.80;;
52208;SDS011;38507;53.132;6.394;2023-11-21T08:02:06;28.77;;;13.88;;
52208;SDS011;38507;53.132;6.394;2023-11-21T08:04:32;30.88;;;15.48;;
52208;SDS011;38507;53.132;6.394;2023-11-21T08:06:58;35.58;;;17.30;;
52208;SDS011;38507;53.132;6.394;2023-11-21T08:09:23;44.15;;;19.70;;
52208;SDS011;38507;53.132;6.394;2023-11-21T08:11:49;45.75;;;21.52;;
52208;SDS011;38507;53.132;6.394;2023-11-21T08:14:15;34.42;;;18.60;;
52208;SDS011;38507;53.132;6.394;2023-11-21T08:16:42;36.55;;;18.65;;
52208;SDS011;38507;53.132;6.394;2023-11-21T08:19:07;36.70;;;19.38;;
52208;SDS011;38507;53.132;6.394;2023-11-21T08:21:34;34.83;;;19.02;;
52208;SDS011;38507;53.132;6.394;2023-11-21T08:24:02;35.65;;;18.95;;
52208;SDS011;38507;53.132;6.394;2023-11-21T08:26:29;35.35;;;19.38;;
52208;SDS011;38507;53.132;6.394;2023-11-21T08:28:55;34.70;;;18.75;;
52208;SDS011;38507;53.132;6.394;2023-11-21T08:31:25;34.90;;;17.67;;
52208;SDS011;38507;53.132;6.394;2023-11-21T08:33:51;35.88;;;19.25;;
52208;SDS011;38507;53.132;6.394;2023-11-21T08:36:16;33.95;;;18.60;;
52208;SDS011;38507;53.132;6.394;2023-11-21T08:38:42;38.55;;;19.60;;
52208;SDS011;38507;53.132;6.394;2023-11-21T08:41:08;38.35;;;19.60;;
52208;SDS011;38507;53.132;6.394;2023-11-21T08:43:34;41.58;;;20.65;;
52208;SDS011;38507;53.132;6.394;2023-11-21T08:46:00;44.08;;;21.65;;
52208;SDS011;38507;53.132;6.394;2023-11-21T08:48:26;35.92;;;20.00;;
52208;SDS011;38507;53.132;6.394;2023-11-21T08:50:53;37.63;;;20.80;;
52208;SDS011;38507;53.132;6.394;2023-11-21T08:53:19;39.78;;;20.33;;
52208;SDS011;38507;53.132;6.394;2023-11-21T08:55:45;39.50;;;19.60;;
52208;SDS011;38507;53.132;6.394;2023-11-21T08:58:10;36.47;;;20.02;;
52208;SDS011;38507;53.132;6.394;2023-11-21T09:00:37;38.03;;;20.70;;
52208;SDS011;38507;53.132;6.394;2023-11-21T09:03:05;40.70;;;20.90;;
52208;SDS011;38507;53.132;6.394;2023-11-21T09:05:33;38.60;;;21.85;;
52208;SDS011;38507;53.132;6.394;2023-11-21T09:08:02;40.15;;;22.55;;
52208;SDS011;38507;53.132;6.394;2023-11-21T09:10:28;40.60;;;21.65;;
52208;SDS011;38507;53.132;6.394;2023-11-21T09:12:53;37.95;;;20.60;;
52208;SDS011;38507;53.132;6.394;2023-11-21T09:15:19;40.88;;;21.77;;
52208;SDS011;38507;53.132;6.394;2023-11-21T09:17:45;37.28;;;20.52;;
52208;SDS011;38507;53.132;6.394;2023-11-21T09:20:11;31.17;;;19.08;;
52208;SDS011;38507;53.132;6.394;2023-11-21T09:22:36;26.35;;;17.58;;
52208;SDS011;38507;53.132;6.394;2023-11-21T09:25:02;27.48;;;17.60;;
52208;SDS011;38507;53.132;6.394;2023-11-21T09:27:31;26.42;;;16.95;;
52208;SDS011;38507;53.132;6.394;2023-11-21T09:29:57;24.92;;;17.17;;
52208;SDS011;38507;53.132;6.394;2023-11-21T09:32:23;25.15;;;16.52;;
52208;SDS011;38507;53.132;6.394;2023-11-21T09:34:49;30.27;;;17.55;;
52208;SDS011;38507;53.132;6.394;2023-11-21T09:37:15;31.08;;;17.52;;
52208;SDS011;38507;53.132;6.394;2023-11-21T09:39:41;25.55;;;16.85;;
52208;SDS011;38507;53.132;6.394;2023-11-21T09:42:12;27.45;;;17.88;;
52208;SDS011;38507;53.132;6.394;2023-11-21T09:47:21;23.63;;;16.55;;
52208;SDS011;38507;53.132;6.394;2023-11-21T09:49:48;23.85;;;15.93;;
52208;SDS011;38507;53.132;6.394;2023-11-21T09:52:24;23.15;;;15.70;;
52208;SDS011;38507;53.132;6.394;2023-11-21T09:54:51;25.55;;;15.35;;
52208;SDS011;38507;53.132;6.394;2023-11-21T09:57:19;22.70;;;15.95;;
52208;SDS011;38507;53.132;6.394;2023-11-21T09:59:51;21.38;;;14.55;;
52208;SDS011;38507;53.132;6.394;2023-11-21T10:02:27;26.25;;;15.05;;
52208;SDS011;38507;53.132;6.394;2023-11-21T10:04:58;21.60;;;15.10;;
52208;SDS011;38507;53.132;6.394;2023-11-21T10:07:25;22.55;;;15.95;;
52208;SDS011;38507;53.132;6.394;2023-11-21T10:09:53;21.48;;;14.85;;
52208;SDS011;38507;53.132;6.394;2023-11-21T10:12:20;22.67;;;15.18;;
52208;SDS011;38507;53.132;6.394;2023-11-21T10:14:48;19.85;;;14.52;;
52208;SDS011;38507;53.132;6.394;2023-11-21T10:17:18;19.50;;;14.20;;
52208;SDS011;38507;53.132;6.394;2023-11-21T10:19:48;21.83;;;14.57;;
52208;SDS011;38507;53.132;6.394;2023-11-21T10:22:15;25.23;;;14.65;;
52208;SDS011;38507;53.132;6.394;2023-11-21T10:24:41;22.20;;;13.70;;
52208;SDS011;38507;53.132;6.394;2023-11-21T10:27:08;18.23;;;13.55;;
52208;SDS011;38507;53.132;6.394;2023-11-21T10:29:34;25.50;;;14.27;;
52208;SDS011;38507;53.132;6.394;2023-11-21T10:32:03;19.88;;;13.52;;
52208;SDS011;38507;53.132;6.394;2023-11-21T10:34:30;17.85;;;13.07;;
52208;SDS011;38507;53.132;6.394;2023-11-21T10:36:56;17.98;;;12.95;;
52208;SDS011;38507;53.132;6.394;2023-11-21T10:39:23;18.33;;;12.98;;
52208;SDS011;38507;53.132;6.394;2023-11-21T10:41:52;17.75;;;12.63;;
52208;SDS011;38507;53.132;6.394;2023-11-21T10:44:19;16.33;;;11.40;;
52208;SDS011;38507;53.132;6.394;2023-11-21T10:46:51;16.33;;;11.02;;
52208;SDS011;38507;53.132;6.394;2023-11-21T10:49:25;13.52;;;9.50;;
52208;SDS011;38507;53.132;6.394;2023-11-21T10:51:54;14.05;;;10.23;;
52208;SDS011;38507;53.132;6.394;2023-11-21T10:54:21;14.82;;;9.80;;
52208;SDS011;38507;53.132;6.394;2023-11-21T10:56:53;12.77;;;9.30;;
52208;SDS011;38507;53.132;6.394;2023-11-21T10:59:23;13.90;;;9.68;;
52208;SDS011;38507;53.132;6.394;2023-11-21T11:01:54;17.38;;;9.02;;
52208;SDS011;38507;53.132;6.394;2023-11-21T11:04:22;12.50;;;8.18;;
52208;SDS011;38507;53.132;6.394;2023-11-21T11:07:08;19.80;;;9.70;;
52208;SDS011;38507;53.132;6.394;2023-11-21T11:09:37;11.52;;;7.70;;
52208;SDS011;38507;53.132;6.394;2023-11-21T11:12:02;12.48;;;8.32;;
52208;SDS011;38507;53.132;6.394;2023-11-21T11:14:29;13.75;;;8.45;;
52208;SDS011;38507;53.132;6.394;2023-11-21T11:16:57;11.82;;;8.45;;
52208;SDS011;38507;53.132;6.394;2023-11-21T11:19:24;13.85;;;7.82;;
52208;SDS011;38507;53.132;6.394;2023-11-21T11:22:12;10.43;;;7.10;;
52208;SDS011;38507;53.132;6.394;2023-11-21T11:36:10;9.38;;;6.10;;
52208;SDS011;38507;53.132;6.394;2023-11-21T11:38:51;9.15;;;6.47;;
52208;SDS011;38507;53.132;6.394;2023-11-21T11:41:24;9.32;;;6.30;;
52208;SDS011;38507;53.132;6.394;2023-11-21T11:43:52;9.68;;;6.65;;
52208;SDS011;38507;53.132;6.394;2023-11-21T11:46:18;10.57;;;6.57;;
52208;SDS011;38507;53.132;6.394;2023-11-21T11:48:46;10.00;;;5.50;;
52208;SDS011;38507;53.132;6.394;2023-11-21T11:51:13;7.95;;;5.80;;
52208;SDS011;38507;53.132;6.394;2023-11-21T11:53:42;7.70;;;5.28;;
52208;SDS011;38507;53.132;6.394;2023-11-21T11:56:19;10.35;;;5.00;;
52208;SDS011;38507;53.132;6.394;2023-11-21T11:58:51;7.45;;;5.30;;
52208;SDS011;38507;53.132;6.394;2023-11-21T12:01:19;8.63;;;5.30;;
52208;SDS011;38507;53.132;6.394;2023-11-21T12:04:16;8.23;;;5.20;;
52208;SDS011;38507;53.132;6.394;2023-11-21T12:06:42;7.50;;;4.95;;
52208;SDS011;38507;53.132;6.394;2023-11-21T12:09:17;9.23;;;6.10;;
52208;SDS011;38507;53.132;6.394;2023-11-21T12:11:43;7.95;;;5.20;;
52208;SDS011;38507;53.132;6.394;2023-11-21T12:14:10;7.45;;;4.68;;
52208;SDS011;38507;53.132;6.394;2023-11-21T12:16:35;10.25;;;4.97;;
52208;SDS011;38507;53.132;6.394;2023-11-21T12:19:02;9.90;;;5.10;;
52208;SDS011;38507;53.132;6.394;2023-11-21T12:21:28;6.53;;;4.35;;
52208;SDS011;38507;53.132;6.394;2023-11-21T12:23:55;8.57;;;4.82;;
52208;SDS011;38507;53.132;6.394;2023-11-21T12:26:22;8.20;;;4.70;;
52208;SDS011;38507;53.132;6.394;2023-11-21T12:28:53;8.43;;;4.95;;
52208;SDS011;38507;53.132;6.394;2023-11-21T12:31:24;7.57;;;5.22;;
52208;SDS011;38507;53.132;6.394;2023-11-21T12:33:50;8.30;;;4.93;;
52208;SDS011;38507;53.132;6.394;2023-11-21T12:36:16;7.75;;;5.50;;
52208;SDS011;38507;53.132;6.394;2023-11-21T12:38:42;7.75;;;5.40;;
52208;SDS011;38507;53.132;6.394;2023-11-21T12:41:08;10.20;;;5.50;;
52208;SDS011;38507;53.132;6.394;2023-11-21T12:43:35;9.23;;;5.63;;
52208;SDS011;38507;53.132;6.394;2023-11-21T12:46:05;8.00;;;5.43;;
52208;SDS011;38507;53.132;6.394;2023-11-21T12:48:32;7.38;;;4.90;;
52208;SDS011;38507;53.132;6.394;2023-11-21T12:50:57;5.78;;;4.05;;
52208;SDS011;38507;53.132;6.394;2023-11-21T12:53:25;7.43;;;5.20;;
52208;SDS011;38507;53.132;6.394;2023-11-21T12:55:51;8.18;;;4.55;;
52208;SDS011;38507;53.132;6.394;2023-11-21T12:58:20;9.40;;;4.97;;
52208;SDS011;38507;53.132;6.394;2023-11-21T13:00:50;7.82;;;5.10;;
52208;SDS011;38507;53.132;6.394;2023-11-21T13:03:19;8.27;;;5.10;;
52208;SDS011;38507;53.132;6.394;2023-11-21T13:05:50;7.88;;;5.22;;
52208;SDS011;38507;53.132;6.394;2023-11-21T13:08:18;7.45;;;5.43;;
52208;SDS011;38507;53.132;6.394;2023-11-21T13:10:46;9.05;;;5.35;;
52208;SDS011;38507;53.132;6.394;2023-11-21T13:13:14;9.30;;;5.50;;
52208;SDS011;38507;53.132;6.394;2023-11-21T13:15:49;8.52;;;5.00;;
52208;SDS011;38507;53.132;6.394;2023-11-21T13:18:17;10.15;;;5.50;;
52208;SDS011;38507;53.132;6.394;2023-11-21T13:20:43;8.18;;;5.78;;
52208;SDS011;38507;53.132;6.394;2023-11-21T13:23:10;9.10;;;5.80;;
52208;SDS011;38507;53.132;6.394;2023-11-21T13:25:41;8.63;;;5.80;;
52208;SDS011;38507;53.132;6.394;2023-11-21T13:28:07;7.82;;;5.40;;
52208;SDS011;38507;53.132;6.394;2023-11-21T13:30:34;7.95;;;5.20;;
52208;SDS011;38507;53.132;6.394;2023-11-21T13:33:04;8.35;;;6.03;;
52208;SDS011;38507;53.132;6.394;2023-11-21T13:35:37;10.88;;;5.93;;
52208;SDS011;38507;53.132;6.394;2023-11-21T13:38:07;8.80;;;5.53;;
52208;SDS011;38507;53.132;6.394;2023-11-21T13:40:35;8.63;;;5.75;;
52208;SDS011;38507;53.132;6.394;2023-11-21T13:43:09;10.48;;;6.22;;
52208;SDS011;38507;53.132;6.394;2023-11-21T13:45:36;9.15;;;6.18;;
52208;SDS011;38507;53.132;6.394;2023-11-21T13:48:04;9.45;;;6.10;;
52208;SDS011;38507;53.132;6.394;2023-11-21T13:50:35;8.65;;;5.75;;
52208;SDS011;38507;53.132;6.394;2023-11-21T13:53:20;10.43;;;5.60;;
52208;SDS011;38507;53.132;6.394;2023-11-21T13:55:49;8.63;;;5.85;;
52208;SDS011;38507;53.132;6.394;2023-11-21T13:58:25;9.93;;;6.07;;
52208;SDS011;38507;53.132;6.394;2023-11-21T14:01:06;8.50;;;5.82;;
52208;SDS011;38507;53.132;6.394;2023-11-21T14:03:41;11.32;;;5.47;;
52208;SDS011;38507;53.132;6.394;2023-11-21T14:06:17;12.23;;;6.05;;
52208;SDS011;38507;53.132;6.394;2023-11-21T14:08:49;10.20;;;5.50;;
52208;SDS011;38507;53.132;6.394;2023-11-21T14:11:15;7.97;;;5.28;;
52208;SDS011;38507;53.132;6.394;2023-11-21T14:13:45;7.72;;;5.13;;
52208;SDS011;38507;53.132;6.394;2023-11-21T14:16:13;9.40;;;4.72;;
52208;SDS011;38507;53.132;6.394;2023-11-21T14:18:42;10.40;;;4.72;;
52208;SDS011;38507;53.132;6.394;2023-11-21T14:21:20;9.30;;;5.30;;
52208;SDS011;38507;53.132;6.394;2023-11-21T14:23:46;11.00;;;5.63;;
52208;SDS011;38507;53.132;6.394;2023-11-21T14:26:13;9.70;;;5.20;;
52208;SDS011;38507;53.132;6.394;2023-11-21T14:28:40;9.07;;;5.05;;
52208;SDS011;38507;53.132;6.394;2023-11-21T14:31:06;8.23;;;5.32;;
52208;SDS011;38507;53.132;6.394;2023-11-21T14:33:33;11.30;;;5.32;;
52208;SDS011;38507;53.132;6.394;2023-11-21T14:35:58;9.38;;;5.03;;
52208;SDS011;38507;53.132;6.394;2023-11-21T14:38:24;9.20;;;5.25;;
52208;SDS011;38507;53.132;6.394;2023-11-21T14:40:50;9.77;;;4.45;;
52208;SDS011;38507;53.132;6.394;2023-11-21T14:43:15;9.52;;;4.68;;